Time;durP1;ratioP1;P1;durP2;ratioP2;P2;SDS_P1;SDS_P2;PMS_P1;PMS_P2;Temp;Humidity;BMP_temperature;BMP_pressure;BME280_temperature;BME280_humidity;BME280_pressure;Samples;Min_cycle;Max_cycle;Signal;HPM_P1;HPM_P2
2021/11/26 00:00:05;;;;;;;62.50;26.50;;;0.80;99.90;;;;;;5037249;28;20904;-92
2021/11/26 00:02:32;;;;;;;60.37;25.73;;;;;;;;;;5036958;28;20464;-91
2021/11/26 00:05:01;;;;;;;72.70;30.63;;;;;;;;;;5037061;28;20947;-91
2021/11/26 00:07:28;;;;;;;64.80;27.67;;;;;;;;;;5037381;28;20448;-93
2021/11/26 00:09:55;;;;;;;58.93;25.30;;;;;;;;;;5033460;28;20464;-91
2021/11/26 00:12:22;;;;;;;60.97;28.10;;;;;;;;;;5037398;28;20814;-90
2021/11/26 00:14:53;;;;;;;61.07;28.10;;;;;;;;;;5036998;28;20436;-92
2021/11/26 00:17:26;;;;;;;56.33;27.10;;;0.70;99.90;;;;;;5050489;28;20456;-90
2021/11/26 00:19:53;;;;;;;75.93;27.03;;;;;;;;;;5056714;28;20538;-90
2021/11/26 00:22:23;;;;;;;64.73;28.30;;;;;;;;;;5049413;28;20459;-94
2021/11/26 00:24:54;;;;;;;68.97;26.67;;;0.80;99.90;;;;;;5053543;28;20536;-90
2021/11/26 00:27:23;;;;;;;55.30;25.07;;;0.80;99.90;;;;;;5053825;28;20491;-91
2021/11/26 00:29:52;;;;;;;56.53;24.13;;;;;;;;;;5053484;28;20444;-92
2021/11/26 00:32:19;;;;;;;61.57;26.87;;;;;;;;;;5056299;28;20441;-91
2021/11/26 00:34:53;;;;;;;52.43;24.60;;;0.70;99.90;;;;;;5049252;28;20452;-92
2021/11/26 00:37:20;;;;;;;59.97;25.67;;;;;;;;;;5047068;28;20534;-93
2021/11/26 00:39:50;;;;;;;54.97;26.40;;;0.70;99.90;;;;;;5048791;28;20466;-91
2021/11/26 00:42:20;;;;;;;50.00;24.23;;;;;;;;;;5056656;28;20532;-91
2021/11/26 00:44:47;;;;;;;55.40;26.53;;;;;;;;;;5053567;28;20446;-91
2021/11/26 00:47:15;;;;;;;52.73;23.90;;;;;;;;;;5055767;28;20487;-88
2021/11/26 00:49:44;;;;;;;61.80;24.80;;;;;;;;;;5056965;28;20441;-91
2021/11/26 00:52:15;;;;;;;50.57;23.37;;;;;;;;;;5053247;28;20473;-92
2021/11/26 00:54:42;;;;;;;59.13;26.27;;;;;;;;;;5056435;28;20846;-91
2021/11/26 00:57:14;;;;;;;49.83;24.30;;;;;;;;;;5056550;28;20455;-92
2021/11/26 00:59:42;;;;;;;55.03;24.73;;;;;;;;;;5056087;28;20451;-90
2021/11/26 01:02:12;;;;;;;52.43;23.93;;;0.70;99.90;;;;;;5051992;28;20436;-91
2021/11/26 01:04:41;;;;;;;54.77;25.00;;;;;;;;;;5052930;28;20810;-91
2021/11/26 01:07:09;;;;;;;57.93;26.90;;;;;;;;;;5053077;28;20492;-92
2021/11/26 01:09:38;;;;;;;49.33;22.60;;;0.70;99.90;;;;;;5056125;28;20459;-91
2021/11/26 01:12:07;;;;;;;64.77;27.80;;;0.70;99.90;;;;;;5051315;28;20449;-93
2021/11/26 01:14:36;;;;;;;56.40;25.83;;;;;;;;;;5056327;28;20447;-92
2021/11/26 01:17:03;;;;;;;55.57;26.00;;;;;;;;;;5051144;28;20473;-92
2021/11/26 01:19:34;;;;;;;60.30;26.67;;;;;;;;;;5053110;28;20461;-94
2021/11/26 01:22:08;;;;;;;57.07;26.13;;;0.70;99.90;;;;;;5055792;28;20535;-93
2021/11/26 01:24:35;;;;;;;54.10;26.43;;;;;;;;;;5049494;28;20506;-93
2021/11/26 01:27:07;;;;;;;56.27;25.53;;;;;;;;;;5050026;28;20568;-91
2021/11/26 01:29:37;;;;;;;60.97;25.93;;;;;;;;;;5053234;28;20527;-93
2021/11/26 01:32:08;;;;;;;51.70;24.40;;;0.80;99.90;;;;;;5055217;28;20465;-91
2021/11/26 01:34:37;;;;;;;63.50;26.77;;;0.70;99.90;;;;;;5050400;28;20444;-92
2021/11/26 01:37:10;;;;;;;54.90;25.57;;;0.80;99.90;;;;;;5052657;28;20443;-93
2021/11/26 01:39:37;;;;;;;50.23;24.17;;;;;;;;;;5050864;28;20451;-92
2021/11/26 01:42:06;;;;;;;48.60;25.20;;;0.40;99.90;;;;;;5055376;28;20479;-92
2021/11/26 01:44:36;;;;;;;50.50;24.00;;;0.70;99.90;;;;;;5052619;28;20451;-90
2021/11/26 01:47:04;;;;;;;50.73;24.30;;;;;;;;;;5051856;28;20501;-92
2021/11/26 01:49:33;;;;;;;50.03;23.10;;;;;;;;;;5050687;28;20472;-91
2021/11/26 01:52:00;;;;;;;60.47;24.33;;;;;;;;;;5051155;28;20468;-92
2021/11/26 01:54:30;;;;;;;52.20;24.20;;;;;;;;;;5055585;28;20451;-90
2021/11/26 01:56:57;;;;;;;50.73;21.77;;;;;;;;;;5055361;28;21191;-91
2021/11/26 01:59:27;;;;;;;49.00;23.00;;;;;;;;;;5055003;28;20451;-91
2021/11/26 02:01:56;;;;;;;45.07;21.43;;;;;;;;;;5050104;28;20466;-91
2021/11/26 02:04:23;;;;;;;45.87;21.97;;;;;;;;;;5054996;28;20952;-90
2021/11/26 02:07:03;;;;;;;44.30;21.40;;;;;;;;;;5049586;28;20490;-92
2021/11/26 02:09:30;;;;;;;47.67;22.70;;;;;;;;;;5054979;28;20479;-92
2021/11/26 02:11:57;;;;;;;50.10;22.60;;;;;;;;;;5055253;28;20443;-92
2021/11/26 02:14:25;;;;;;;51.17;23.73;;;;;;;;;;5052109;28;20455;-91
2021/11/26 02:16:53;;;;;;;47.27;22.97;;;;;;;;;;5054459;28;20442;-91
2021/11/26 02:19:22;;;;;;;47.03;23.60;;;0.70;99.90;;;;;;5052204;28;20507;-91
2021/11/26 02:21:51;;;;;;;40.07;20.03;;;;;;;;;;5054973;28;20448;-92
2021/11/26 02:24:18;;;;;;;35.27;16.53;;;;;;;;;;5054584;28;20479;-91
2021/11/26 02:26:47;;;;;;;49.33;24.80;;;0.80;99.90;;;;;;5054888;28;20487;-93
2021/11/26 02:29:17;;;;;;;46.93;23.37;;;0.70;99.90;;;;;;5051723;28;20460;-92
2021/11/26 02:31:44;;;;;;;50.57;23.10;;;;;;;;;;5053773;28;20435;-93
2021/11/26 02:34:12;;;;;;;43.57;22.40;;;0.70;99.90;;;;;;5054953;28;20450;-92
2021/11/26 02:36:39;;;;;;;56.07;23.37;;;;;;;;;;5050749;28;20813;-93
2021/11/26 02:39:09;;;;;;;44.57;22.37;;;0.70;99.90;;;;;;5054898;28;20443;-91
2021/11/26 02:41:36;;;;;;;47.00;23.17;;;;;;;;;;5054643;28;20514;-92
2021/11/26 02:44:04;;;;;;;43.63;20.87;;;;;;;;;;5054562;28;20444;-91
2021/11/26 02:46:31;;;;;;;55.60;23.90;;;;;;;;;;5053908;28;20484;-90
2021/11/26 02:48:58;;;;;;;44.23;22.83;;;;;;;;;;5054525;28;20448;-91
2021/11/26 02:51:25;;;;;;;51.90;23.10;;;;;;;;;;5054458;28;20920;-92
2021/11/26 02:53:52;;;;;;;47.07;23.60;;;;;;;;;;5051034;28;20951;-92
2021/11/26 02:56:21;;;;;;;46.77;22.63;;;;;;;;;;5054689;28;20440;-92
2021/11/26 02:58:48;;;;;;;45.53;24.47;;;;;;;;;;5051442;28;21042;-91
2021/11/26 03:01:15;;;;;;;55.00;23.70;;;;;;;;;;5054313;28;20447;-92
2021/11/26 03:03:42;;;;;;;40.50;20.70;;;;;;;;;;5050517;28;20432;-91
2021/11/26 03:06:10;;;;;;;44.77;21.30;;;;;;;;;;5050208;28;20459;-91
2021/11/26 03:08:37;;;;;;;54.23;25.83;;;;;;;;;;5050006;28;20464;-92
2021/11/26 03:11:06;;;;;;;43.07;21.43;;;0.70;99.90;;;;;;5054354;28;20460;-93
2021/11/26 03:13:35;;;;;;;45.63;21.70;;;0.80;99.90;;;;;;5051163;28;20467;-92
2021/11/26 03:16:02;;;;;;;49.20;23.80;;;;;;;;;;5049959;28;20443;-91
2021/11/26 03:18:30;;;;;;;43.53;21.80;;;;;;;;;;5050472;28;20451;-94
2021/11/26 03:20:57;;;;;;;50.33;24.80;;;;;;;;;;5051092;28;20458;-92
2021/11/26 03:23:25;;;;;;;48.10;23.27;;;;;;;;;;5053901;28;21052;-92
2021/11/26 03:25:52;;;;;;;42.37;21.00;;;;;;;;;;5054422;28;20458;-92
2021/11/26 03:28:19;;;;;;;47.20;22.83;;;;;;;;;;5046226;28;20982;-92
2021/11/26 03:30:49;;;;;;;49.60;23.33;;;0.80;99.90;;;;;;5054055;28;20444;-94
2021/11/26 03:33:16;;;;;;;47.57;23.77;;;;;;;;;;5048440;28;20549;-91
2021/11/26 03:35:44;;;;;;;49.47;23.27;;;;;;;;;;5054044;28;20432;-92
2021/11/26 03:38:11;;;;;;;43.50;22.00;;;;;;;;;;5049621;28;20456;-92
2021/11/26 03:40:38;;;;;;;48.57;23.13;;;;;;;;;;5053684;28;20473;-93
2021/11/26 03:43:06;;;;;;;49.87;22.77;;;;;;;;;;5048408;28;20455;-93
2021/11/26 03:45:34;;;;;;;50.20;22.93;;;0.80;99.90;;;;;;5053969;28;20449;-91
2021/11/26 03:48:02;;;;;;;49.07;25.87;;;0.70;99.90;;;;;;5053435;28;20493;-91
2021/11/26 03:50:31;;;;;;;61.70;24.53;;;;;;;;;;5041401;28;20531;-92
2021/11/26 03:52:58;;;;;;;53.57;24.47;;;;;;;;;;5049789;28;20935;-92
2021/11/26 03:55:27;;;;;;;50.17;21.60;;;0.70;99.90;;;;;;5053843;28;20535;-92
2021/11/26 03:57:55;;;;;;;45.20;21.40;;;0.70;99.90;;;;;;5050715;28;20462;-93
2021/11/26 04:00:22;;;;;;;46.27;21.77;;;;;;;;;;5049901;28;20793;-91
2021/11/26 04:02:50;;;;;;;46.90;21.30;;;;;;;;;;5053186;28;20464;-92
2021/11/26 04:05:19;;;;;;;49.83;23.23;;;0.60;99.90;;;;;;5053773;28;20472;-90
2021/11/26 04:07:46;;;;;;;41.40;21.67;;;;;;;;;;5053580;28;20491;-93
2021/11/26 04:10:15;;;;;;;52.73;25.37;;;0.70;99.90;;;;;;5053797;28;20450;-92
2021/11/26 04:12:43;;;;;;;55.50;24.00;;;0.70;99.90;;;;;;5053915;28;20451;-93
2021/11/26 04:15:13;;;;;;;49.53;21.27;;;0.70;99.90;;;;;;5054068;28;20460;-92
2021/11/26 04:17:40;;;;;;;41.20;22.47;;;;;;;;;;5052868;28;20507;-91
2021/11/26 04:20:09;;;;;;;42.67;20.90;;;0.60;99.90;;;;;;5053801;28;20486;-93
2021/11/26 04:22:37;;;;;;;51.57;22.13;;;0.50;99.90;;;;;;5053741;28;20446;-93
2021/11/26 04:25:05;;;;;;;44.50;21.37;;;0.40;99.90;;;;;;5053667;28;20462;-92
2021/11/26 04:27:32;;;;;;;45.10;22.47;;;;;;;;;;5053209;28;20497;-91
2021/11/26 04:29:59;;;;;;;46.10;22.23;;;;;;;;;;5051869;28;20457;-93
2021/11/26 04:32:26;;;;;;;51.67;24.37;;;;;;;;;;5056603;28;20450;-93
2021/11/26 04:34:54;;;;;;;50.57;23.73;;;0.50;99.90;;;;;;5053182;28;20943;-93
2021/11/26 04:37:21;;;;;;;54.20;23.93;;;;;;;;;;5053158;28;20505;-93
2021/11/26 04:39:50;;;;;;;50.70;22.60;;;0.50;99.90;;;;;;5053847;28;20493;-93
2021/11/26 04:42:17;;;;;;;52.10;23.50;;;;;;;;;;5053921;28;20456;-93
2021/11/26 04:44:44;;;;;;;46.83;21.20;;;;;;;;;;5053983;28;20466;-91
2021/11/26 04:47:11;;;;;;;41.40;19.30;;;;;;;;;;5056229;28;20494;-91
2021/11/26 04:49:38;;;;;;;49.03;22.70;;;;;;;;;;5056954;28;20449;-91
2021/11/26 04:52:06;;;;;;;40.77;21.30;;;;;;;;;;5052990;28;20456;-92
2021/11/26 04:54:33;;;;;;;50.10;23.60;;;;;;;;;;5053640;28;20765;-92
2021/11/26 04:57:01;;;;;;;49.13;23.30;;;0.60;99.90;;;;;;5056726;28;20433;-91
2021/11/26 04:59:28;;;;;;;44.90;21.20;;;;;;;;;;5056888;28;20443;-90
2021/11/26 05:01:55;;;;;;;43.93;22.77;;;;;;;;;;5056209;28;20447;-93
2021/11/26 05:04:22;;;;;;;46.17;22.33;;;;;;;;;;5056772;28;20450;-92
2021/11/26 05:06:50;;;;;;;43.90;18.87;;;;;;;;;;5056438;28;20499;-91
2021/11/26 05:09:17;;;;;;;49.57;24.40;;;;;;;;;;5056392;28;20904;-92
2021/11/26 05:11:45;;;;;;;40.17;21.07;;;;;;;;;;5056221;28;20459;-91
2021/11/26 05:14:18;;;;;;;43.97;21.67;;;;;;;;;;5053234;28;20477;-90
2021/11/26 05:16:45;;;;;;;45.17;22.37;;;;;;;;;;5055769;28;21102;-90
2021/11/26 05:19:12;;;;;;;41.97;21.60;;;;;;;;;;5056096;28;20440;-91
2021/11/26 05:21:39;;;;;;;36.80;17.60;;;;;;;;;;5056087;28;20457;-91
2021/11/26 05:24:06;;;;;;;46.50;21.00;;;;;;;;;;5055766;28;20486;-90
2021/11/26 05:26:33;;;;;;;43.30;21.40;;;;;;;;;;5052860;28;20849;-90
2021/11/26 05:29:01;;;;;;;31.00;14.30;;;;;;;;;;5056489;28;20498;-92
2021/11/26 05:31:30;;;;;;;51.00;24.27;;;;;;;;;;5055851;28;20443;-92
2021/11/26 05:33:58;;;;;;;49.67;22.80;;;;;;;;;;5056187;28;20439;-92
2021/11/26 05:36:25;;;;;;;50.63;23.83;;;;;;;;;;5053042;28;20834;-93
2021/11/26 05:38:52;;;;;;;46.70;22.20;;;;;;;;;;5052148;28;20428;-91
2021/11/26 05:41:19;;;;;;;51.40;21.87;;;;;;;;;;5055143;28;21009;-93
2021/11/26 05:43:46;;;;;;;48.93;24.40;;;;;;;;;;5055929;28;20447;-92
2021/11/26 05:46:14;;;;;;;51.07;22.90;;;;;;;;;;5052758;28;20975;-91
2021/11/26 05:48:43;;;;;;;44.87;23.07;;;;;;;;;;5054954;28;20544;-92
2021/11/26 05:51:10;;;;;;;51.43;23.37;;;;;;;;;;5055620;28;20450;-92
2021/11/26 05:53:37;;;;;;;54.73;22.83;;;;;;;;;;5055575;28;20442;-92
2021/11/26 05:56:04;;;;;;;43.60;19.20;;;;;;;;;;5055760;28;20440;-91
2021/11/26 05:58:32;;;;;;;47.57;23.40;;;;;;;;;;5053115;28;20462;-91
2021/11/26 06:01:00;;;;;;;52.63;22.63;;;;;;;;;;5051791;28;20518;-91
2021/11/26 06:03:27;;;;;;;44.17;21.50;;;;;;;;;;5055150;28;20434;-91
2021/11/26 06:05:55;;;;;;;46.27;23.43;;;0.80;99.90;;;;;;5052858;28;20470;-94
2021/11/26 06:08:22;;;;;;;48.77;23.30;;;;;;;;;;5043825;28;20875;-91
2021/11/26 06:10:49;;;;;;;43.60;21.30;;;;;;;;;;5050290;28;20530;-91
2021/11/26 06:13:17;;;;;;;42.83;22.50;;;;;;;;;;5054851;28;20461;-92
2021/11/26 06:15:44;;;;;;;41.43;21.53;;;;;;;;;;5054918;28;20455;-91
2021/11/26 06:18:11;;;;;;;45.07;21.27;;;;;;;;;;5046852;28;20451;-91
2021/11/26 06:20:38;;;;;;;49.47;23.80;;;;;;;;;;5055144;28;20561;-91
2021/11/26 06:23:07;;;;;;;46.43;21.07;;;;;;;;;;5050176;28;20995;-91
2021/11/26 06:25:34;;;;;;;49.03;23.23;;;;;;;;;;5050696;28;20462;-90
2021/11/26 06:28:01;;;;;;;48.73;21.80;;;;;;;;;;5054907;28;20467;-91
2021/11/26 06:30:28;;;;;;;42.73;21.27;;;;;;;;;;5050947;28;20475;-91
2021/11/26 06:32:56;;;;;;;42.50;21.90;;;;;;;;;;5054380;28;20440;-92
2021/11/26 06:35:25;;;;;;;45.47;22.80;;;0.60;99.90;;;;;;5050022;28;20442;-91
2021/11/26 06:37:54;;;;;;;41.80;19.93;;;0.70;99.90;;;;;;5049821;28;20442;-91
2021/11/26 06:40:23;;;;;;;48.77;22.57;;;;;;;;;;5050643;28;20476;-92
2021/11/26 06:42:50;;;;;;;40.43;19.77;;;;;;;;;;5050407;28;20527;-91
2021/11/26 06:45:17;;;;;;;44.30;23.67;;;;;;;;;;5054917;28;20442;-91
2021/11/26 06:47:46;;;;;;;42.70;20.87;;;;;;;;;;5051121;28;20466;-91
2021/11/26 06:50:13;;;;;;;40.77;21.33;;;;;;;;;;5050406;28;20548;-92
2021/11/26 06:52:40;;;;;;;48.47;22.77;;;;;;;;;;5054153;28;20448;-92
2021/11/26 06:55:09;;;;;;;40.03;20.40;;;0.90;99.90;;;;;;5054727;28;20454;-91
2021/11/26 06:57:38;;;;;;;40.10;21.57;;;0.80;99.90;;;;;;5048675;28;20468;-91
2021/11/26 07:00:07;;;;;;;42.80;19.07;;;0.90;99.90;;;;;;5054122;28;20443;-91
2021/11/26 07:02:35;;;;;;;38.17;19.27;;;;;;;;;;5049958;28;20431;-94
2021/11/26 07:05:02;;;;;;;40.80;20.03;;;;;;;;;;5056139;28;20806;-89
2021/11/26 07:07:29;;;;;;;40.00;20.87;;;;;;;;;;5049192;28;20472;-90
2021/11/26 07:09:56;;;;;;;47.10;23.00;;;;;;;;;;5054255;28;20440;-89
2021/11/26 07:12:23;;;;;;;46.33;23.10;;;;;;;;;;5049542;28;20433;-89
2021/11/26 07:14:52;;;;;;;42.57;20.90;;;0.80;99.90;;;;;;5049342;28;20454;-90
2021/11/26 07:17:19;;;;;;;39.93;18.37;;;;;;;;;;5047447;28;20439;-90
2021/11/26 07:19:49;;;;;;;34.73;18.90;;;;;;;;;;5053829;28;20501;-91
2021/11/26 07:22:16;;;;;;;38.70;17.73;;;;;;;;;;5049735;28;20455;-92
2021/11/26 07:24:43;;;;;;;41.67;20.50;;;;;;;;;;5053865;28;20483;-92
2021/11/26 07:27:10;;;;;;;37.53;17.70;;;;;;;;;;5054488;28;20432;-90
2021/11/26 07:29:37;;;;;;;43.17;18.10;;;;;;;;;;5054230;28;20506;-92
2021/11/26 07:32:08;;;;;;;40.00;19.80;;;0.80;99.90;;;;;;5053892;28;20424;-91
2021/11/26 07:34:35;;;;;;;37.97;18.53;;;;;;;;;;5048429;28;20459;-94
2021/11/26 07:37:02;;;;;;;37.67;17.83;;;;;;;;;;5055611;28;20451;-92
2021/11/26 07:39:33;;;;;;;34.20;16.20;;;;;;;;;;5051298;28;20482;-93
2021/11/26 07:42:03;;;;;;;17.83;8.27;;;;;;;;;;5053078;28;20542;-92
2021/11/26 07:44:30;;;;;;;46.43;17.90;;;;;;;;;;5052900;28;20466;-93
2021/11/26 07:46:57;;;;;;;46.00;20.20;;;;;;;;;;5050594;28;20498;-92
2021/11/26 07:49:28;;;;;;;37.33;16.57;;;;;;;;;;5051176;28;20561;-93
2021/11/26 07:51:56;;;;;;;36.57;18.40;;;0.90;99.90;;;;;;5054575;28;20935;-94
2021/11/26 07:54:23;;;;;;;35.03;17.53;;;;;;;;;;5054579;28;20455;-92
2021/11/26 07:56:50;;;;;;;46.93;19.37;;;;;;;;;;5052289;28;20436;-93
2021/11/26 07:59:18;;;;;;;35.77;17.60;;;;;;;;;;5052640;28;20452;-94
2021/11/26 08:01:45;;;;;;;38.33;19.93;;;;;;;;;;5054128;28;20444;-91
2021/11/26 08:04:14;;;;;;;38.30;18.33;;;;;;;;;;5041488;28;20448;-90
2021/11/26 08:06:45;;;;;;;40.07;18.37;;;;;;;;;;5037719;28;20482;-92
2021/11/26 08:09:12;;;;;;;42.53;19.77;;;;;;;;;;5037408;28;20587;-91
2021/11/26 08:11:39;;;;;;;39.83;20.67;;;;;;;;;;5040303;28;20465;-91
2021/11/26 08:14:07;;;;;;;32.00;15.30;;;;;;;;;;5037441;28;20452;-91
2021/11/26 08:16:34;;;;;;;38.07;18.60;;;;;;;;;;5036548;28;20452;-89
2021/11/26 08:19:01;;;;;;;35.47;18.53;;;;;;;;;;5037415;28;20951;-90
2021/11/26 08:21:28;;;;;;;38.30;19.83;;;;;;;;;;5037190;28;20804;-91
2021/11/26 08:23:57;;;;;;;32.13;16.43;;;;;;;;;;5036936;28;20571;-89
2021/11/26 08:26:24;;;;;;;32.73;17.60;;;;;;;;;;5036887;28;20463;-90
2021/11/26 08:28:51;;;;;;;36.07;18.53;;;;;;;;;;5036837;28;20500;-90
2021/11/26 08:31:18;;;;;;;39.17;17.83;;;;;;;;;;5036850;28;20473;-90
2021/11/26 08:33:46;;;;;;;32.03;16.17;;;;;;;;;;5036183;28;20452;-91
2021/11/26 08:36:13;;;;;;;32.50;18.03;;;;;;;;;;5037558;28;20456;-90
2021/11/26 08:38:40;;;;;;;33.07;18.30;;;;;;;;;;5036146;28;20481;-89
2021/11/26 08:41:08;;;;;;;38.23;19.80;;;;;;;;;;5036263;28;20461;-88
2021/11/26 08:43:36;;;;;;;43.30;20.77;;;;;;;;;;5034369;28;20547;-92
2021/11/26 08:46:03;;;;;;;33.53;19.37;;;;;;;;;;5038772;28;20803;-87
2021/11/26 08:48:30;;;;;;;35.43;18.93;;;;;;;;;;5035350;28;20507;-89
2021/11/26 08:50:57;;;;;;;32.90;18.13;;;;;;;;;;5035798;28;20449;-88
2021/11/26 08:53:25;;;;;;;37.33;19.13;;;;;;;;;;5035675;28;20445;-87
2021/11/26 08:55:53;;;;;;;30.00;16.07;;;;;;;;;;5035462;28;20449;-86
2021/11/26 08:58:22;;;;;;;33.87;17.83;;;1.40;99.90;;;;;;5035418;28;20461;-87
2021/11/26 09:00:49;;;;;;;37.10;20.80;;;;;;;;;;5035534;28;20459;-89
2021/11/26 09:03:16;;;;;;;34.30;18.73;;;1.60;99.90;;;;;;5034449;28;20455;-89
2021/11/26 09:05:44;;;;;;;31.30;16.50;;;1.50;99.90;;;;;;5035630;28;20449;-88
2021/11/26 09:08:15;;;;;;;38.97;20.17;;;;;;;;;;5030158;28;20485;-89
2021/11/26 09:10:43;;;;;;;42.60;20.10;;;1.50;99.90;;;;;;5035289;28;20449;-90
2021/11/26 09:13:11;;;;;;;37.00;17.77;;;1.50;99.90;;;;;;5035418;28;20452;-90
2021/11/26 09:15:40;;;;;;;39.53;19.10;;;1.50;99.90;;;;;;5032353;28;20865;-91
2021/11/26 09:18:07;;;;;;;25.77;11.47;;;;;;;;;;5035191;28;20452;-90
2021/11/26 09:20:34;;;;;;;39.57;21.30;;;;;;;;;;5035675;28;20461;-88
2021/11/26 09:23:02;;;;;;;36.37;18.63;;;;;;;;;;5038663;28;20472;-89
2021/11/26 09:25:30;;;;;;;45.07;22.90;;;;;;;;;;5055337;28;20459;-92
2021/11/26 09:27:57;;;;;;;32.50;18.40;;;;;;;;;;5052837;28;20464;-90
2021/11/26 09:30:26;;;;;;;37.77;16.83;;;1.30;99.90;;;;;;5056768;28;20448;-90
2021/11/26 09:32:56;;;;;;;41.43;20.23;;;1.30;99.90;;;;;;5061896;28;20442;-91
2021/11/26 09:35:23;;;;;;;40.00;20.97;;;;;;;;;;5069961;28;20437;-89
2021/11/26 09:37:50;;;;;;;42.90;20.60;;;;;;;;;;5062986;28;20540;-90
2021/11/26 09:40:18;;;;;;;58.50;28.67;;;1.40;99.90;;;;;;5052890;28;20456;-90
2021/11/26 09:42:46;;;;;;;26.27;13.40;;;;;;;;;;5052353;28;20543;-89
2021/11/26 09:45:17;;;;;;;14.90;8.87;;;1.40;99.90;;;;;;5055723;28;20440;-89
2021/11/26 09:47:44;;;;;;;106.23;56.87;;;;;;;;;;5055058;28;20497;-88
2021/11/26 09:50:14;;;;;;;56.83;29.27;;;1.50;99.90;;;;;;5052034;28;20487;-88
2021/11/26 09:52:42;;;;;;;62.40;32.10;;;1.60;99.90;;;;;;5055105;28;20452;-88
2021/11/26 09:55:11;;;;;;;83.93;39.00;;;1.50;99.90;;;;;;5016227;28;20945;-91
2021/11/26 09:57:40;;;;;;;62.50;27.47;;;1.60;99.90;;;;;;5011390;28;20461;-90
2021/11/26 10:00:10;;;;;;;69.27;35.87;;;1.70;99.90;;;;;;5011215;28;20542;-89
2021/11/26 10:02:37;;;;;;;58.57;30.00;;;;;;;;;;5015159;28;20954;-89
2021/11/26 10:05:06;;;;;;;56.37;27.80;;;1.80;99.90;;;;;;5015359;28;20993;-90
2021/11/26 10:07:45;;;;;;;52.67;23.07;;;1.90;99.90;;;;;;5015344;28;20441;-91
2021/11/26 10:10:14;;;;;;;44.00;21.83;;;1.80;99.90;;;;;;5011907;28;20490;-92
2021/11/26 10:12:41;;;;;;;43.20;21.10;;;2.00;99.90;;;;;;5014945;28;20452;-91
2021/11/26 10:15:09;;;;;;;49.70;23.53;;;1.80;99.90;;;;;;5015284;28;20439;-91
2021/11/26 10:17:36;;;;;;;41.40;22.10;;;;;;;;;;5007760;28;20795;-90
2021/11/26 10:20:10;;;;;;;47.43;22.30;;;1.90;99.90;;;;;;5014875;28;20460;-90
2021/11/26 10:22:39;;;;;;;48.80;24.03;;;1.90;99.90;;;;;;5015260;28;20438;-91
2021/11/26 10:25:11;;;;;;;44.23;21.30;;;1.90;99.90;;;;;;5045577;28;20448;-90
2021/11/26 10:27:42;;;;;;;44.10;21.23;;;1.90;99.90;;;;;;5058413;28;20543;-90
2021/11/26 10:30:11;;;;;;;43.17;21.60;;;2.10;99.90;;;;;;5053804;28;20595;-90
2021/11/26 10:32:38;;;;;;;47.87;21.40;;;;;;;;;;5053071;28;20467;-90
2021/11/26 10:35:05;;;;;;;45.50;20.90;;;2.40;99.90;;;;;;5051101;28;20460;-90
2021/11/26 10:37:32;;;;;;;37.00;19.57;;;;;;;;;;5054006;28;20456;-89
2021/11/26 10:40:00;;;;;;;35.90;18.13;;;;;;;;;;5050876;28;20441;-90
2021/11/26 10:42:30;;;;;;;33.93;16.37;;;1.90;99.90;;;;;;5054272;28;20452;-90
2021/11/26 10:45:02;;;;;;;42.73;20.83;;;2.00;99.90;;;;;;5054298;28;20451;-90
2021/11/26 10:47:45;;;;;;;41.00;20.60;;;;;;;;;;5053382;28;20459;-91
2021/11/26 10:58:38;;;;;;;40.77;19.53;;;2.00;99.90;;;;;;5035396;28;20447;-88
2021/11/26 11:01:08;;;;;;;40.00;19.63;;;2.10;99.90;;;;;;5053265;28;20461;-89
2021/11/26 11:03:35;;;;;;;42.03;20.47;;;;;;;;;;5052311;28;20461;-90
2021/11/26 11:06:02;;;;;;;38.63;17.60;;;;;;;;;;5054713;28;20952;-88
2021/11/26 11:08:29;;;;;;;42.87;20.97;;;;;;;;;;5053421;28;20451;-90
2021/11/26 11:10:57;;;;;;;45.63;19.37;;;;;;;;;;5050183;28;20482;-89
2021/11/26 11:13:30;;;;;;;41.57;18.30;;;2.00;99.90;;;;;;5053470;28;20808;-89
2021/11/26 11:16:06;;;;;;;39.67;20.77;;;2.00;99.90;;;;;;5049912;28;20435;-89
2021/11/26 11:18:34;;;;;;;22.60;10.07;;;;;;;;;;5052902;28;20448;-90
2021/11/26 11:21:01;;;;;;;17.03;7.47;;;;;;;;;;5051108;28;20519;-89
2021/11/26 11:23:28;;;;;;;34.30;17.03;;;;;;;;;;5054007;28;20483;-91
2021/11/26 11:25:57;;;;;;;32.83;16.60;;;1.90;99.90;;;;;;5054645;28;20455;-90
2021/11/26 11:28:25;;;;;;;41.10;20.83;;;;;;;;;;5053820;28;20905;-91
2021/11/26 11:30:53;;;;;;;34.27;13.77;;;2.00;99.90;;;;;;5053382;28;20496;-91
2021/11/26 11:33:21;;;;;;;43.23;18.50;;;;;;;;;;5052604;28;20444;-90
2021/11/26 11:35:49;;;;;;;37.27;18.43;;;;;;;;;;5053836;28;20457;-90
2021/11/26 11:38:18;;;;;;;40.47;19.17;;;2.00;99.90;;;;;;5050527;28;20800;-88
2021/11/26 11:41:00;;;;;;;43.00;20.03;;;2.20;99.90;;;;;;5057827;28;20460;-90
2021/11/26 11:43:27;;;;;;;27.47;12.17;;;;;;;;;;5057938;28;20451;-90
2021/11/26 11:45:57;;;;;;;32.20;16.10;;;3.60;99.90;;;;;;5059235;28;20899;-91
2021/11/26 11:48:26;;;;;;;35.13;15.70;;;;;;;;;;5053985;28;20435;-94
2021/11/26 11:51:00;;;;;;;41.00;19.20;;;;;;;;;;5057879;28;20499;-90
2021/11/26 11:53:31;;;;;;;45.00;19.73;;;2.00;99.90;;;;;;5052578;28;20813;-89
2021/11/26 11:56:12;;;;;;;38.80;18.67;;;2.10;99.90;;;;;;5021745;28;20964;-90
2021/11/26 11:58:48;;;;;;;17.80;9.60;;;2.30;99.90;;;;;;5018839;28;20465;-91
2021/11/26 12:01:26;;;;;;;38.23;18.53;;;2.10;99.90;;;;;;5032383;28;20460;-92
2021/11/26 12:03:55;;;;;;;33.03;11.83;;;2.10;99.90;;;;;;5032276;28;20439;-90
2021/11/26 12:06:24;;;;;;;29.43;12.00;;;2.00;99.90;;;;;;5040552;28;20449;-92
2021/11/26 12:08:55;;;;;;;11.30;5.97;;;2.10;99.90;;;;;;5037710;28;20449;-94
2021/11/26 12:11:40;;;;;;;22.53;10.03;;;2.20;99.90;;;;;;5048520;28;20439;-91
2021/11/26 12:14:08;;;;;;;19.97;10.27;;;2.10;99.90;;;;;;5058046;28;20494;-91
2021/11/26 12:16:47;;;;;;;27.17;12.00;;;2.00;99.90;;;;;;5039931;28;20492;-91
2021/11/26 12:19:19;;;;;;;32.90;14.67;;;2.00;99.90;;;;;;5039087;28;20443;-93
2021/11/26 12:21:49;;;;;;;40.80;19.90;;;2.10;99.90;;;;;;5037290;28;20470;-93
2021/11/26 12:24:20;;;;;;;13.80;8.70;;;;;;;;;;5054996;28;20567;-94
2021/11/26 12:26:52;;;;;;;10.73;6.20;;;2.00;99.90;;;;;;5060551;28;20465;-88
2021/11/26 12:29:22;;;;;;;37.00;16.50;;;2.10;99.90;;;;;;5059579;28;20605;-93
2021/11/26 12:31:51;;;;;;;34.73;16.30;;;;;;;;;;5058863;28;20998;-93
2021/11/26 12:34:20;;;;;;;16.93;7.93;;;2.10;99.90;;;;;;5059829;28;20463;-94
2021/11/26 12:36:50;;;;;;;35.83;18.13;;;2.10;99.90;;;;;;5059594;28;20440;-91
2021/11/26 12:39:21;;;;;;;35.00;15.43;;;0.60;99.90;;;;;;5058596;28;20455;-92
2021/11/26 12:41:48;;;;;;;40.13;18.10;;;;;;;;;;5059715;28;20497;-93
2021/11/26 12:44:17;;;;;;;41.40;19.47;;;;;;;;;;5054580;28;20460;-92
2021/11/26 12:46:46;;;;;;;33.77;17.47;;;;;;;;;;5055265;28;20450;-89
2021/11/26 12:52:07;;;;;;;23.10;10.17;;;2.30;99.90;;;;;;5067207;28;20459;-89
2021/11/26 12:54:37;;;;;;;27.00;12.97;;;2.30;99.90;;;;;;5060932;28;20885;-91
2021/11/26 12:57:06;;;;;;;33.20;16.10;;;2.40;99.90;;;;;;5056691;28;20450;-92
2021/11/26 12:59:37;;;;;;;10.63;6.73;;;2.40;99.90;;;;;;5057965;28;20440;-94
2021/11/26 13:02:05;;;;;;;28.33;12.40;;;;;;;;;;5055479;28;20444;-92
2021/11/26 13:04:33;;;;;;;32.20;15.40;;;2.40;99.90;;;;;;5057715;28;20446;-92
2021/11/26 13:07:06;;;;;;;11.77;6.33;;;2.40;99.90;;;;;;5056799;28;20463;-93
2021/11/26 13:09:40;;;;;;;33.50;15.00;;;2.40;99.90;;;;;;5055428;28;20469;-91
2021/11/26 13:12:08;;;;;;;29.40;12.73;;;;;;;;;;5059683;28;20491;-91
2021/11/26 13:14:43;;;;;;;38.67;20.77;;;;;;;;;;5054022;28;20474;-92
2021/11/26 13:17:10;;;;;;;25.63;11.73;;;;;;;;;;5056085;28;20439;-93
2021/11/26 13:19:38;;;;;;;9.17;5.03;;;;;;;;;;5053839;28;20494;-91
2021/11/26 13:22:05;;;;;;;28.87;16.70;;;;;;;;;;5056356;28;20497;-94
2021/11/26 13:24:33;;;;;;;20.23;6.40;;;;;;;;;;5057341;28;20488;-93
2021/11/26 13:27:00;;;;;;;63.73;32.17;;;;;;;;;;5056304;28;20455;-93
2021/11/26 13:29:27;;;;;;;31.40;14.57;;;;;;;;;;5056276;28;20476;-92
2021/11/26 13:31:56;;;;;;;16.50;9.00;;;2.90;99.90;;;;;;5055832;28;20433;-93
2021/11/26 13:34:23;;;;;;;20.73;10.40;;;;;;;;;;5052057;28;20462;-93
2021/11/26 13:36:52;;;;;;;6.87;4.97;;;;;;;;;;5056106;28;20448;-93
2021/11/26 13:39:23;;;;;;;29.27;15.63;;;;;;;;;;5055953;28;20916;-93
2021/11/26 13:41:51;;;;;;;17.77;8.07;;;;;;;;;;5057388;28;20459;-93
2021/11/26 13:44:20;;;;;;;23.80;9.80;;;2.90;99.90;;;;;;5056989;28;20560;-91
2021/11/26 13:46:49;;;;;;;25.33;12.43;;;3.10;99.90;;;;;;5045461;28;20468;-93
2021/11/26 13:49:17;;;;;;;20.00;10.37;;;3.10;99.90;;;;;;5050279;28;20436;-91
2021/11/26 13:51:48;;;;;;;11.73;6.37;;;3.00;99.90;;;;;;5051894;28;20432;-92
2021/11/26 13:54:18;;;;;;;19.40;9.37;;;3.00;99.90;;;;;;5042085;28;20461;-92
2021/11/26 13:56:48;;;;;;;19.73;12.20;;;2.90;99.90;;;;;;5035144;28;20967;-93